BAW249 EGLL-SBGL
Flight info
| Callsign | BAW249 |
|---|---|
| Flight time | 2h 12m |
| Altitude | 32000 |
| Route | GASGU N866 SAM L620 GIBSO DCT RATKA/M085F320 DCT 49N011W 48N012W DCT GONAN DCT 42N016W 37N020W DCT RIPOD DCT INSAD/M085F340 DCT BAMUX DCT TARIM DCT NANIK UN741 JOBER/N0495F340 UN741 TERIN/N0497F360 UZ19 ANPAG UZ29 KEVOS UN401 MOLSU UTBO2A |
| Aircraft | B744/H-SDE1FGHIJ1RWXYZ/LB1 |
Departure
| Time | 2026-05-04 22:47 |
|---|---|
| Airport | London Heathrow Airport (EGLL) |
Arrival
| Time | 2026-05-05 01:00 |
|---|---|
| Airport | Rio Galeão – Tom Jobim International Airport (SBGL) |
| Time | Latitude | Longitude | Altitude | Speed | Heading |
|---|---|---|---|---|---|
| 2026-05-04 22:02 | 51.47055 | -0.47493 | 97 ft | 0 kts | 269° |
| 2026-05-04 22:33 | 51.47055 | -0.47473 | 96 ft | 3 kts | 269° |
| 2026-05-04 22:34 | 51.47056 | -0.47435 | 96 ft | 3 kts | 266° |
| 2026-05-04 22:34 | 51.47061 | -0.47398 | 96 ft | 3 kts | 246° |
| 2026-05-04 22:34 | 51.47074 | -0.47369 | 96 ft | 3 kts | 215° |
| 2026-05-04 22:34 | 51.47094 | -0.47355 | 96 ft | 3 kts | 184° |
| 2026-05-04 22:35 | 51.47119 | -0.47353 | 96 ft | 3 kts | 182° |
| 2026-05-04 22:35 | 51.47127 | -0.47353 | 96 ft | 0 kts | 182° |
| 2026-05-04 22:38 | 51.47096 | -0.47354 | 96 ft | 10 kts | 179° |
| 2026-05-04 22:39 | 51.47025 | -0.47352 | 96 ft | 10 kts | 179° |
| 2026-05-04 22:39 | 51.46957 | -0.47352 | 96 ft | 10 kts | 180° |
| 2026-05-04 22:39 | 51.46891 | -0.47351 | 96 ft | 9 kts | 180° |
| 2026-05-04 22:39 | 51.46828 | -0.47350 | 96 ft | 9 kts | 179° |
| 2026-05-04 22:40 | 51.46767 | -0.47354 | 96 ft | 8 kts | 200° |
| 2026-05-04 22:40 | 51.46745 | -0.47434 | 96 ft | 8 kts | 269° |
| 2026-05-04 22:40 | 51.46745 | -0.47546 | 96 ft | 12 kts | 269° |
| 2026-05-04 22:40 | 51.46745 | -0.47700 | 96 ft | 15 kts | 270° |
| 2026-05-04 22:41 | 51.46744 | -0.47865 | 96 ft | 14 kts | 269° |
| 2026-05-04 22:41 | 51.46743 | -0.48028 | 96 ft | 16 kts | 270° |
| 2026-05-04 22:41 | 51.46743 | -0.48219 | 96 ft | 17 kts | 270° |
| 2026-05-04 22:41 | 51.46742 | -0.48403 | 96 ft | 16 kts | 270° |
| 2026-05-04 22:42 | 51.46742 | -0.48576 | 96 ft | 15 kts | 270° |
| 2026-05-04 22:42 | 51.46741 | -0.48694 | 96 ft | 7 kts | 265° |
| 2026-05-04 22:42 | 51.46708 | -0.48749 | 96 ft | 8 kts | 193° |
| 2026-05-04 22:42 | 51.46649 | -0.48753 | 96 ft | 8 kts | 183° |
| 2026-05-04 22:43 | 51.46625 | -0.48758 | 96 ft | 0 kts | 193° |
| 2026-05-04 22:43 | 51.46623 | -0.48758 | 96 ft | 2 kts | 193° |
| 2026-05-04 22:43 | 51.46579 | -0.48782 | 96 ft | 9 kts | 198° |
| 2026-05-04 22:43 | 51.46516 | -0.48778 | 96 ft | 9 kts | 158° |
| 2026-05-04 22:44 | 51.46484 | -0.48726 | 96 ft | 5 kts | 112° |
| 2026-05-04 22:44 | 51.46478 | -0.48677 | 96 ft | 4 kts | 89° |
| 2026-05-04 22:44 | 51.46478 | -0.48664 | 96 ft | 0 kts | 89° |
| 2026-05-04 22:45 | 51.46478 | -0.48656 | 96 ft | 5 kts | 89° |
| 2026-05-04 22:46 | 51.46479 | -0.48421 | 96 ft | 45 kts | 90° |
| 2026-05-04 22:46 | 51.46481 | -0.47615 | 96 ft | 100 kts | 89° |
| 2026-05-04 22:46 | 51.46485 | -0.46221 | 96 ft | 149 kts | 89° |
| 2026-05-04 22:46 | 51.46494 | -0.44358 | 200 ft | 176 kts | 90° |
| 2026-05-04 22:47 | 51.46489 | -0.42363 | 608 ft | 184 kts | 91° |
| 2026-05-04 22:47 | 51.46137 | -0.40343 | 976 ft | 198 kts | 118° |
| 2026-05-04 22:47 | 51.45316 | -0.38516 | 1426 ft | 206 kts | 124° |
| 2026-05-04 22:47 | 51.44438 | -0.36667 | 1809 ft | 218 kts | 126° |
| 2026-05-04 22:48 | 51.43412 | -0.34770 | 2070 ft | 232 kts | 139° |
| 2026-05-04 22:48 | 51.41938 | -0.33658 | 2289 ft | 240 kts | 165° |
| 2026-05-04 22:48 | 51.40258 | -0.33663 | 2543 ft | 247 kts | 190° |
| 2026-05-04 22:48 | 51.38642 | -0.34646 | 2830 ft | 253 kts | 205° |
| 2026-05-04 22:49 | 51.37104 | -0.36158 | 3008 ft | 266 kts | 213° |
| 2026-05-04 22:49 | 51.35551 | -0.37958 | 3168 ft | 283 kts | 216° |
| 2026-05-04 22:49 | 51.33972 | -0.39886 | 3671 ft | 288 kts | 218° |
| 2026-05-04 22:49 | 51.32403 | -0.41932 | 4140 ft | 294 kts | 223° |
| 2026-05-04 22:50 | 51.31052 | -0.44412 | 4657 ft | 297 kts | 234° |
| 2026-05-04 22:50 | 51.30004 | -0.47106 | 5159 ft | 299 kts | 244° |
| 2026-05-04 22:50 | 51.29268 | -0.50204 | 5434 ft | 299 kts | 253° |
| 2026-05-04 22:50 | 51.28715 | -0.53421 | 5711 ft | 302 kts | 257° |
| 2026-05-04 22:51 | 51.28279 | -0.56726 | 6186 ft | 306 kts | 261° |
| 2026-05-04 22:51 | 51.27888 | -0.60081 | 6765 ft | 307 kts | 257° |
| 2026-05-04 22:51 | 51.27472 | -0.62441 | 7190 ft | 307 kts | 253° |
| 2026-05-04 22:51 | 51.26793 | -0.65693 | 7706 ft | 311 kts | 251° |
| 2026-05-04 22:52 | 51.26089 | -0.68922 | 8252 ft | 312 kts | 252° |
| 2026-05-04 22:52 | 51.25397 | -0.72220 | 8773 ft | 314 kts | 252° |
| 2026-05-04 22:52 | 51.24724 | -0.75541 | 9287 ft | 315 kts | 252° |
| 2026-05-04 22:52 | 51.24054 | -0.78894 | 9773 ft | 318 kts | 252° |
| 2026-05-04 22:53 | 51.23384 | -0.82272 | 10215 ft | 323 kts | 252° |
| 2026-05-04 22:53 | 51.22693 | -0.85764 | 10342 ft | 338 kts | 252° |
| 2026-05-04 22:53 | 51.21970 | -0.89421 | 10465 ft | 354 kts | 252° |
| 2026-05-04 22:53 | 51.21200 | -0.93247 | 10575 ft | 370 kts | 250° |
| 2026-05-04 22:54 | 51.20049 | -0.97015 | 10677 ft | 386 kts | 239° |
| 2026-05-04 22:54 | 51.18546 | -1.00666 | 10813 ft | 401 kts | 234° |
| 2026-05-04 22:54 | 51.16831 | -1.04238 | 11198 ft | 409 kts | 231° |
| 2026-05-04 22:54 | 51.15031 | -1.07740 | 11639 ft | 416 kts | 230° |
| 2026-05-04 22:55 | 51.13213 | -1.11349 | 12161 ft | 420 kts | 231° |
| 2026-05-04 22:55 | 51.11403 | -1.15025 | 12743 ft | 422 kts | 231° |
| 2026-05-04 22:55 | 51.09588 | -1.18724 | 13370 ft | 425 kts | 231° |
| 2026-05-04 22:55 | 51.07764 | -1.22443 | 13959 ft | 428 kts | 231° |
| 2026-05-04 22:56 | 51.05929 | -1.26198 | 14532 ft | 432 kts | 231° |
| 2026-05-04 22:56 | 51.04068 | -1.29980 | 15145 ft | 435 kts | 231° |
| 2026-05-04 22:56 | 51.02195 | -1.33778 | 15756 ft | 439 kts | 231° |
| 2026-05-04 22:56 | 51.00599 | -1.37928 | 16326 ft | 443 kts | 244° |
| 2026-05-04 22:57 | 50.99423 | -1.42482 | 16916 ft | 446 kts | 249° |
| 2026-05-04 22:57 | 50.98446 | -1.47173 | 17469 ft | 450 kts | 252° |
| 2026-05-04 22:57 | 50.97608 | -1.51985 | 18023 ft | 453 kts | 255° |
| 2026-05-04 22:57 | 50.96871 | -1.56795 | 18558 ft | 456 kts | 255° |
| 2026-05-04 22:58 | 50.96094 | -1.61687 | 19080 ft | 459 kts | 254° |
| 2026-05-04 22:58 | 50.95263 | -1.66606 | 19595 ft | 462 kts | 253° |
| 2026-05-04 22:58 | 50.94407 | -1.71538 | 20100 ft | 465 kts | 253° |
| 2026-05-04 22:58 | 50.93539 | -1.76497 | 20598 ft | 468 kts | 252° |
| 2026-05-04 22:59 | 50.92664 | -1.81483 | 21077 ft | 470 kts | 252° |
| 2026-05-04 22:59 | 50.91783 | -1.86496 | 21556 ft | 473 kts | 252° |
| 2026-05-04 22:59 | 50.90895 | -1.91546 | 22017 ft | 476 kts | 252° |
| 2026-05-04 22:59 | 50.90006 | -1.96604 | 22472 ft | 478 kts | 252° |
| 2026-05-04 23:00 | 50.89109 | -2.01699 | 22923 ft | 481 kts | 252° |
| 2026-05-04 23:00 | 50.88210 | -2.06839 | 23240 ft | 486 kts | 252° |
| 2026-05-04 23:00 | 50.87334 | -2.12024 | 23690 ft | 487 kts | 252° |
| 2026-05-04 23:00 | 50.86442 | -2.17132 | 24092 ft | 489 kts | 251° |
| 2026-05-04 23:01 | 50.85515 | -2.22332 | 24443 ft | 492 kts | 251° |
| 2026-05-04 23:01 | 50.84576 | -2.27556 | 24782 ft | 495 kts | 251° |
| 2026-05-04 23:01 | 50.83628 | -2.32808 | 25141 ft | 497 kts | 251° |
| 2026-05-04 23:01 | 50.82675 | -2.38073 | 25527 ft | 499 kts | 251° |
| 2026-05-04 23:02 | 50.81721 | -2.43334 | 26050 ft | 496 kts | 251° |
| 2026-05-04 23:02 | 50.80772 | -2.48573 | 26561 ft | 495 kts | 251° |
| 2026-05-04 23:02 | 50.80144 | -2.52041 | 26854 ft | 495 kts | 251° |
| 2026-05-04 23:02 | 50.77807 | -2.68674 | 28209 ft | 495 kts | 256° |
| 2026-05-04 23:03 | 50.76171 | -2.82868 | 29315 ft | 493 kts | 258° |
| 2026-05-04 23:03 | 50.73815 | -3.04139 | 30779 ft | 492 kts | 257° |
| 2026-05-04 23:03 | 50.71305 | -3.25393 | 31897 ft | 491 kts | 257° |
| 2026-05-04 23:03 | 50.68700 | -3.46803 | 32012 ft | 498 kts | 257° |
| 2026-05-04 23:04 | 50.63368 | -3.89214 | 32026 ft | 491 kts | 257° |
| 2026-05-04 23:04 | 50.57571 | -4.31456 | 32036 ft | 496 kts | 255° |
| 2026-05-04 23:05 | 50.51641 | -4.73780 | 32050 ft | 503 kts | 256° |
| 2026-05-04 23:05 | 50.45429 | -5.16887 | 32053 ft | 508 kts | 256° |
| 2026-05-04 23:06 | 50.38754 | -5.61666 | 32043 ft | 509 kts | 255° |
| 2026-05-04 23:06 | 50.25382 | -6.47824 | 32023 ft | 509 kts | 255° |
| 2026-05-04 23:07 | 50.11289 | -7.33991 | 32041 ft | 516 kts | 255° |
| 2026-05-04 23:07 | 49.95373 | -8.20190 | 32045 ft | 518 kts | 247° |
| 2026-05-04 23:08 | 49.67669 | -8.98392 | 32080 ft | 520 kts | 246° |
| 2026-05-04 23:08 | 49.41759 | -9.78880 | 32111 ft | 534 kts | 243° |
| 2026-05-04 23:09 | 49.14246 | -10.59604 | 32108 ft | 534 kts | 244° |
| 2026-05-04 23:09 | 48.79320 | -11.27899 | 32023 ft | 534 kts | 200° |
| 2026-05-04 23:10 | 48.65613 | -11.36406 | 32115 ft | 539 kts | 213° |
| 2026-05-04 23:10 | 48.18556 | -11.82260 | 32122 ft | 546 kts | 214° |
| 2026-05-04 23:11 | 47.65296 | -12.25366 | 32123 ft | 544 kts | 201° |
| 2026-05-04 23:11 | 47.10364 | -12.62575 | 32123 ft | 541 kts | 207° |
| 2026-05-04 23:12 | 46.56082 | -12.98836 | 32110 ft | 538 kts | 206° |
| 2026-05-04 23:12 | 46.01482 | -13.35024 | 32108 ft | 541 kts | 206° |
| 2026-05-04 23:13 | 45.46449 | -13.70584 | 32109 ft | 543 kts | 206° |
| 2026-05-04 23:13 | 44.91499 | -14.05407 | 32095 ft | 537 kts | 207° |
| 2026-05-04 23:14 | 44.38494 | -14.43160 | 32109 ft | 533 kts | 209° |
| 2026-05-04 23:14 | 43.85249 | -14.79156 | 32151 ft | 528 kts | 210° |
| 2026-05-04 23:15 | 43.33036 | -15.14034 | 32109 ft | 520 kts | 210° |
| 2026-05-04 23:15 | 42.81187 | -15.48029 | 32126 ft | 513 kts | 210° |
| 2026-05-04 23:16 | 42.29990 | -15.80973 | 32122 ft | 504 kts | 211° |
| 2026-05-04 23:16 | 41.80494 | -16.14728 | 32115 ft | 489 kts | 219° |
| 2026-05-04 23:17 | 41.35390 | -16.56533 | 32142 ft | 496 kts | 217° |
| 2026-05-04 23:17 | 40.89377 | -16.94535 | 32143 ft | 483 kts | 218° |
| 2026-05-04 23:18 | 40.43865 | -17.32424 | 32193 ft | 483 kts | 217° |
| 2026-05-04 23:18 | 39.98317 | -17.69688 | 32212 ft | 482 kts | 216° |
| 2026-05-04 23:19 | 39.52795 | -18.06330 | 32227 ft | 481 kts | 216° |
| 2026-05-04 23:19 | 39.07247 | -18.42423 | 32228 ft | 479 kts | 215° |
| 2026-05-04 23:20 | 38.62138 | -18.77628 | 32256 ft | 476 kts | 215° |
| 2026-05-04 23:20 | 38.16741 | -19.12533 | 32262 ft | 475 kts | 214° |
| 2026-05-04 23:21 | 37.71399 | -19.46888 | 32262 ft | 474 kts | 214° |
| 2026-05-04 23:21 | 37.26093 | -19.80728 | 32274 ft | 473 kts | 214° |
| 2026-05-04 23:22 | 36.80159 | -20.13258 | 32254 ft | 476 kts | 209° |
| 2026-05-04 23:22 | 36.32821 | -20.41510 | 32223 ft | 473 kts | 210° |
| 2026-05-04 23:23 | 35.85592 | -20.70555 | 32225 ft | 474 kts | 208° |
| 2026-05-04 23:23 | 35.38135 | -20.99174 | 32222 ft | 475 kts | 208° |
| 2026-05-04 23:24 | 34.90535 | -21.27491 | 32221 ft | 475 kts | 207° |
| 2026-05-04 23:24 | 34.43052 | -21.55374 | 32217 ft | 473 kts | 207° |
| 2026-05-04 23:25 | 33.95728 | -21.82815 | 32213 ft | 470 kts | 206° |
| 2026-05-04 23:25 | 33.48503 | -22.09860 | 32212 ft | 471 kts | 206° |
| 2026-05-04 23:26 | 33.00886 | -22.36801 | 32200 ft | 476 kts | 206° |
| 2026-05-04 23:26 | 32.52794 | -22.63684 | 32186 ft | 479 kts | 206° |
| 2026-05-04 23:27 | 32.04357 | -22.90438 | 32178 ft | 480 kts | 205° |
| 2026-05-04 23:27 | 31.56215 | -23.16721 | 32177 ft | 479 kts | 205° |
| 2026-05-04 23:28 | 31.07831 | -23.42836 | 32167 ft | 479 kts | 205° |
| 2026-05-04 23:28 | 30.59281 | -23.68746 | 32163 ft | 480 kts | 205° |
| 2026-05-04 23:29 | 30.22432 | -23.88234 | 32158 ft | 481 kts | 205° |
| 2026-05-04 23:29 | 30.16341 | -23.91435 | 32157 ft | 481 kts | 205° |
| 2026-05-04 23:30 | 30.00454 | -23.99761 | 32157 ft | 481 kts | 205° |
| 2026-05-04 23:30 | 29.54230 | -24.23224 | 32151 ft | 478 kts | 205° |
| 2026-05-04 23:31 | 29.05929 | -24.47558 | 32152 ft | 469 kts | 206° |
| 2026-05-04 23:31 | 28.58412 | -24.71226 | 32152 ft | 462 kts | 207° |
| 2026-05-04 23:32 | 28.11662 | -24.94298 | 32134 ft | 459 kts | 207° |
| 2026-05-04 23:32 | 27.87693 | -25.05317 | 32530 ft | 477 kts | 204° |
| 2026-05-04 23:32 | 27.63050 | -25.12846 | 33875 ft | 448 kts | 199° |
| 2026-05-04 23:33 | 27.38968 | -25.19910 | 34202 ft | 446 kts | 202° |
| 2026-05-04 23:33 | 27.32094 | -25.22302 | 34082 ft | 458 kts | 204° |
| 2026-05-04 23:33 | 27.13225 | -25.29106 | 34099 ft | 452 kts | 203° |
| 2026-05-04 23:34 | 26.65052 | -25.44825 | 34101 ft | 451 kts | 203° |
| 2026-05-04 23:34 | 26.16655 | -25.60677 | 34101 ft | 455 kts | 203° |
| 2026-05-04 23:35 | 25.68016 | -25.76438 | 34106 ft | 455 kts | 204° |
| 2026-05-04 23:35 | 25.19299 | -25.92089 | 34100 ft | 456 kts | 204° |
| 2026-05-04 23:36 | 24.70295 | -26.07703 | 34097 ft | 461 kts | 205° |
| 2026-05-04 23:36 | 24.20735 | -26.23364 | 34088 ft | 464 kts | 205° |
| 2026-05-04 23:37 | 23.71454 | -26.38811 | 34074 ft | 464 kts | 205° |
| 2026-05-04 23:37 | 23.23419 | -26.53751 | 34065 ft | 466 kts | 204° |
| 2026-05-04 23:38 | 23.17267 | -26.55960 | 34063 ft | 465 kts | 208° |
| 2026-05-04 23:38 | 22.78011 | -26.71469 | 34060 ft | 465 kts | 207° |
| 2026-05-04 23:39 | 22.29170 | -26.90519 | 34058 ft | 469 kts | 206° |
| 2026-05-04 23:39 | 21.80034 | -27.09534 | 34044 ft | 471 kts | 206° |
| 2026-05-04 23:40 | 21.30598 | -27.28522 | 34027 ft | 470 kts | 206° |
| 2026-05-04 23:40 | 20.81201 | -27.47364 | 34001 ft | 470 kts | 206° |
| 2026-05-04 23:41 | 20.31995 | -27.66002 | 34014 ft | 474 kts | 206° |
| 2026-05-04 23:41 | 19.82251 | -27.84716 | 34005 ft | 475 kts | 206° |
| 2026-05-04 23:42 | 19.32565 | -28.03284 | 33991 ft | 473 kts | 205° |
| 2026-05-04 23:42 | 18.82793 | -28.21764 | 33994 ft | 473 kts | 204° |
| 2026-05-04 23:43 | 18.32960 | -28.40151 | 34018 ft | 476 kts | 204° |
| 2026-05-04 23:43 | 17.83089 | -28.58438 | 33999 ft | 475 kts | 204° |
| 2026-05-04 23:44 | 17.33219 | -28.76620 | 33975 ft | 472 kts | 204° |
| 2026-05-04 23:44 | 16.83214 | -28.94746 | 34005 ft | 477 kts | 204° |
| 2026-05-04 23:45 | 16.33288 | -29.12739 | 34031 ft | 482 kts | 204° |
| 2026-05-04 23:45 | 15.82970 | -29.30778 | 33987 ft | 477 kts | 204° |
| 2026-05-04 23:46 | 15.54306 | -29.41012 | 34012 ft | 481 kts | 204° |
| 2026-05-04 23:46 | 15.23004 | -29.52153 | 34011 ft | 483 kts | 205° |
| 2026-05-04 23:47 | 15.13848 | -29.55552 | 34001 ft | 477 kts | 207° |
| 2026-05-04 23:47 | 14.82732 | -29.68886 | 33959 ft | 476 kts | 208° |
| 2026-05-04 23:48 | 14.33569 | -29.89707 | 33990 ft | 480 kts | 208° |
| 2026-05-04 23:48 | 14.08648 | -30.00223 | 33968 ft | 472 kts | 208° |
| 2026-05-04 23:49 | 13.59852 | -30.20748 | 34017 ft | 479 kts | 208° |
| 2026-05-04 23:49 | 13.10226 | -30.41526 | 34003 ft | 481 kts | 208° |
| 2026-05-04 23:50 | 12.60812 | -30.62128 | 34000 ft | 476 kts | 207° |
| 2026-05-04 23:50 | 12.11686 | -30.82522 | 34008 ft | 475 kts | 207° |
| 2026-05-04 23:51 | 11.62983 | -31.02661 | 34007 ft | 473 kts | 206° |
| 2026-05-04 23:51 | 11.14219 | -31.22753 | 33998 ft | 472 kts | 206° |
| 2026-05-04 23:52 | 10.65378 | -31.42797 | 33990 ft | 471 kts | 205° |
| 2026-05-04 23:52 | 10.16899 | -31.62627 | 33990 ft | 469 kts | 205° |
| 2026-05-04 23:53 | 9.68528 | -31.82348 | 33971 ft | 468 kts | 204° |
| 2026-05-04 23:53 | 9.20418 | -32.01902 | 33966 ft | 470 kts | 204° |
| 2026-05-04 23:54 | 8.71674 | -32.21655 | 33979 ft | 473 kts | 203° |
| 2026-05-04 23:54 | 8.30885 | -32.38141 | 33980 ft | 476 kts | 203° |
| 2026-05-04 23:55 | 7.81533 | -32.58040 | 33979 ft | 476 kts | 203° |
| 2026-05-04 23:56 | 7.07523 | -32.87785 | 33972 ft | 477 kts | 202° |
| 2026-05-04 23:56 | 6.58145 | -33.07579 | 33972 ft | 478 kts | 202° |
| 2026-05-04 23:57 | 6.32997 | -33.17756 | 33969 ft | 479 kts | 205° |
| 2026-05-04 23:57 | 6.26039 | -33.21418 | 33970 ft | 479 kts | 208° |
| 2026-05-04 23:58 | 5.79800 | -33.46217 | 33972 ft | 482 kts | 207° |
| 2026-05-04 23:58 | 5.32448 | -33.71484 | 33954 ft | 480 kts | 207° |
| 2026-05-04 23:59 | 4.85183 | -33.96653 | 33979 ft | 488 kts | 207° |
| 2026-05-04 23:59 | 4.37002 | -34.22305 | 33980 ft | 493 kts | 207° |
| 2026-05-05 00:00 | 3.88756 | -34.48141 | 33947 ft | 489 kts | 207° |
| 2026-05-05 00:00 | 3.40393 | -34.73988 | 33972 ft | 494 kts | 207° |
| 2026-05-05 00:01 | 2.91792 | -34.99936 | 33992 ft | 498 kts | 207° |
| 2026-05-05 00:01 | 2.75840 | -35.08447 | 33978 ft | 494 kts | 207° |
| 2026-05-05 00:02 | 2.60478 | -35.16613 | 33966 ft | 494 kts | 207° |
| 2026-05-05 00:02 | 2.11826 | -35.42430 | 33960 ft | 494 kts | 207° |
| 2026-05-05 00:03 | 1.62959 | -35.68341 | 33975 ft | 498 kts | 206° |
| 2026-05-05 00:03 | 1.14016 | -35.94280 | 33968 ft | 498 kts | 206° |
| 2026-05-05 00:04 | 0.65031 | -36.20230 | 33956 ft | 496 kts | 206° |
| 2026-05-05 00:04 | 0.15982 | -36.46209 | 33972 ft | 500 kts | 206° |
| 2026-05-05 00:05 | -0.32940 | -36.72119 | 33972 ft | 503 kts | 206° |
| 2026-05-05 00:05 | -0.82297 | -36.98264 | 33960 ft | 499 kts | 206° |
| 2026-05-05 00:06 | -0.97935 | -37.06328 | 33979 ft | 498 kts | 203° |
| 2026-05-05 00:06 | -1.22634 | -37.16855 | 34004 ft | 501 kts | 202° |
| 2026-05-05 00:07 | -1.73596 | -37.38933 | 33977 ft | 498 kts | 202° |
| 2026-05-05 00:07 | -2.24638 | -37.61017 | 33933 ft | 497 kts | 202° |
| 2026-05-05 00:08 | -2.75562 | -37.83066 | 34004 ft | 509 kts | 202° |
| 2026-05-05 00:08 | -2.96082 | -37.91956 | 33914 ft | 497 kts | 203° |
| 2026-05-05 00:08 | -3.01990 | -37.94518 | 33952 ft | 507 kts | 203° |
| 2026-05-05 00:09 | -3.13651 | -37.99003 | 33988 ft | 502 kts | 194° |
| 2026-05-05 00:09 | -3.20445 | -38.00463 | 34452 ft | 496 kts | 191° |
| 2026-05-05 00:09 | -3.23827 | -38.01111 | 34975 ft | 493 kts | 191° |
| 2026-05-05 00:10 | -3.27174 | -38.01769 | 35530 ft | 488 kts | 192° |
| 2026-05-05 00:10 | -3.30490 | -38.02431 | 35946 ft | 487 kts | 192° |
| 2026-05-05 00:10 | -3.36156 | -38.03577 | 35989 ft | 487 kts | 192° |
| 2026-05-05 00:11 | -3.88775 | -38.14369 | 35991 ft | 484 kts | 192° |
| 2026-05-05 00:11 | -4.41589 | -38.25225 | 35985 ft | 484 kts | 192° |
| 2026-05-05 00:12 | -4.94581 | -38.36136 | 35972 ft | 485 kts | 193° |
| 2026-05-05 00:12 | -5.47526 | -38.47053 | 35966 ft | 485 kts | 193° |
| 2026-05-05 00:13 | -6.00689 | -38.57077 | 35990 ft | 485 kts | 192° |
| 2026-05-05 00:13 | -6.53928 | -38.66823 | 36027 ft | 488 kts | 192° |
| 2026-05-05 00:14 | -7.07309 | -38.76643 | 36074 ft | 490 kts | 192° |
| 2026-05-05 00:14 | -7.60759 | -38.86451 | 36075 ft | 488 kts | 192° |
| 2026-05-05 00:15 | -8.14254 | -38.96302 | 36073 ft | 486 kts | 192° |
| 2026-05-05 00:15 | -8.67700 | -39.06153 | 36091 ft | 489 kts | 192° |
| 2026-05-05 00:16 | -9.21291 | -39.16082 | 36114 ft | 493 kts | 192° |
| 2026-05-05 00:16 | -9.74804 | -39.26033 | 36091 ft | 488 kts | 192° |
| 2026-05-05 00:17 | -10.25616 | -39.35489 | 36044 ft | 481 kts | 192° |
| 2026-05-05 00:17 | -10.55555 | -39.41103 | 36133 ft | 501 kts | 192° |
| 2026-05-05 00:18 | -11.09747 | -39.51247 | 36078 ft | 486 kts | 192° |
| 2026-05-05 00:18 | -11.62240 | -39.61116 | 36095 ft | 482 kts | 192° |
| 2026-05-05 00:19 | -12.15033 | -39.71086 | 36093 ft | 483 kts | 192° |
| 2026-05-05 00:19 | -12.67965 | -39.81113 | 36092 ft | 483 kts | 193° |
| 2026-05-05 00:20 | -13.20758 | -39.91250 | 36104 ft | 482 kts | 193° |
| 2026-05-05 00:20 | -13.73427 | -40.01460 | 36119 ft | 480 kts | 194° |
| 2026-05-05 00:21 | -14.25900 | -40.11697 | 36127 ft | 479 kts | 194° |
| 2026-05-05 00:21 | -14.78308 | -40.21966 | 36133 ft | 479 kts | 194° |
| 2026-05-05 00:22 | -15.30692 | -40.32279 | 36152 ft | 479 kts | 194° |
| 2026-05-05 00:22 | -15.83147 | -40.42636 | 36155 ft | 479 kts | 195° |
| 2026-05-05 00:23 | -16.35545 | -40.53079 | 36162 ft | 480 kts | 195° |
| 2026-05-05 00:23 | -16.87758 | -40.63536 | 36183 ft | 481 kts | 195° |
| 2026-05-05 00:24 | -17.40478 | -40.74137 | 36202 ft | 482 kts | 195° |
| 2026-05-05 00:24 | -17.93250 | -40.84798 | 36218 ft | 483 kts | 196° |
| 2026-05-05 00:25 | -18.45995 | -40.95540 | 36231 ft | 482 kts | 196° |
| 2026-05-05 00:25 | -18.98127 | -41.06235 | 36243 ft | 479 kts | 197° |
| 2026-05-05 00:26 | -19.25466 | -41.11844 | 36248 ft | 478 kts | 197° |
| 2026-05-05 00:26 | -19.27723 | -41.12309 | 36249 ft | 477 kts | 197° |
| 2026-05-05 00:27 | -19.33421 | -41.13483 | 36250 ft | 477 kts | 197° |
| 2026-05-05 00:27 | -19.39950 | -41.14828 | 36250 ft | 477 kts | 197° |
| 2026-05-05 00:28 | -19.46469 | -41.16172 | 36251 ft | 477 kts | 197° |
| 2026-05-05 00:28 | -19.52957 | -41.17516 | 36252 ft | 477 kts | 197° |
| 2026-05-05 00:29 | -19.59477 | -41.18870 | 36252 ft | 476 kts | 197° |
| 2026-05-05 00:29 | -19.65973 | -41.20221 | 36253 ft | 476 kts | 197° |
| 2026-05-05 00:30 | -19.72467 | -41.21571 | 36253 ft | 476 kts | 197° |
| 2026-05-05 00:30 | -19.78942 | -41.22916 | 36253 ft | 476 kts | 197° |
| 2026-05-05 00:31 | -19.85722 | -41.24322 | 36253 ft | 477 kts | 197° |
| 2026-05-05 00:31 | -19.92230 | -41.25673 | 36252 ft | 476 kts | 197° |
| 2026-05-05 00:32 | -19.98721 | -41.27026 | 36252 ft | 475 kts | 197° |
| 2026-05-05 00:32 | -20.05210 | -41.28380 | 36252 ft | 475 kts | 197° |
| 2026-05-05 00:33 | -20.11695 | -41.29734 | 36252 ft | 475 kts | 197° |
| 2026-05-05 00:33 | -20.42136 | -41.36087 | 36253 ft | 475 kts | 197° |
| 2026-05-05 00:34 | -20.93642 | -41.46917 | 36244 ft | 475 kts | 197° |
| 2026-05-05 00:34 | -21.26609 | -41.54013 | 36227 ft | 469 kts | 206° |
| 2026-05-05 00:34 | -21.29463 | -41.55615 | 36237 ft | 462 kts | 220° |
| 2026-05-05 00:35 | -21.31982 | -41.57726 | 36235 ft | 458 kts | 224° |
| 2026-05-05 00:35 | -21.36483 | -41.62453 | 36233 ft | 450 kts | 231° |
| 2026-05-05 00:36 | -21.50630 | -41.79907 | 36231 ft | 449 kts | 232° |
| 2026-05-05 00:36 | -21.60840 | -41.92236 | 36229 ft | 449 kts | 231° |
| 2026-05-05 00:37 | -21.64984 | -41.97246 | 36228 ft | 449 kts | 232° |
| 2026-05-05 00:37 | -21.69121 | -42.02284 | 36227 ft | 449 kts | 232° |
| 2026-05-05 00:38 | -21.73220 | -42.07298 | 36226 ft | 449 kts | 232° |
| 2026-05-05 00:38 | -21.75265 | -42.09801 | 36094 ft | 441 kts | 232° |
| 2026-05-05 00:38 | -21.77271 | -42.12258 | 35619 ft | 434 kts | 232° |
| 2026-05-05 00:38 | -21.79263 | -42.14698 | 35002 ft | 431 kts | 232° |
| 2026-05-05 00:39 | -21.81232 | -42.17111 | 34452 ft | 427 kts | 232° |
| 2026-05-05 00:39 | -21.83270 | -42.19422 | 33916 ft | 426 kts | 225° |
| 2026-05-05 00:39 | -21.85623 | -42.21357 | 33393 ft | 425 kts | 219° |
| 2026-05-05 00:39 | -21.88115 | -42.23070 | 32865 ft | 424 kts | 215° |
| 2026-05-05 00:40 | -21.90672 | -42.24628 | 32337 ft | 421 kts | 213° |
| 2026-05-05 00:40 | -21.93244 | -42.26119 | 31815 ft | 418 kts | 213° |
| 2026-05-05 00:40 | -21.95782 | -42.27616 | 31294 ft | 414 kts | 213° |
| 2026-05-05 00:40 | -21.98285 | -42.29116 | 30778 ft | 410 kts | 213° |
| 2026-05-05 00:41 | -22.00763 | -42.30611 | 30267 ft | 406 kts | 213° |
| 2026-05-05 00:41 | -22.03222 | -42.32098 | 29756 ft | 403 kts | 213° |
| 2026-05-05 00:41 | -22.05657 | -42.33572 | 29236 ft | 400 kts | 213° |
| 2026-05-05 00:41 | -22.07961 | -42.35195 | 28722 ft | 391 kts | 225° |
| 2026-05-05 00:42 | -22.09634 | -42.37443 | 28239 ft | 382 kts | 242° |
| 2026-05-05 00:42 | -22.10746 | -42.40047 | 27803 ft | 389 kts | 248° |
| 2026-05-05 00:42 | -22.11732 | -42.42792 | 27444 ft | 393 kts | 250° |
| 2026-05-05 00:42 | -22.12578 | -42.45541 | 27094 ft | 389 kts | 253° |
| 2026-05-05 00:43 | -22.13331 | -42.48375 | 26740 ft | 388 kts | 255° |
| 2026-05-05 00:43 | -22.14003 | -42.51154 | 26395 ft | 387 kts | 255° |
| 2026-05-05 00:43 | -22.14680 | -42.53959 | 26048 ft | 386 kts | 255° |
| 2026-05-05 00:43 | -22.15353 | -42.56760 | 25697 ft | 385 kts | 255° |
| 2026-05-05 00:44 | -22.16023 | -42.59553 | 25345 ft | 384 kts | 255° |
| 2026-05-05 00:44 | -22.16688 | -42.62335 | 24998 ft | 382 kts | 255° |
| 2026-05-05 00:44 | -22.17137 | -42.64211 | 24765 ft | 381 kts | 255° |
| 2026-05-05 00:44 | -22.18011 | -42.67870 | 24310 ft | 380 kts | 255° |
| 2026-05-05 00:45 | -22.18788 | -42.71126 | 23911 ft | 379 kts | 255° |
| 2026-05-05 00:45 | -22.19657 | -42.74766 | 23462 ft | 377 kts | 255° |
| 2026-05-05 00:45 | -22.20971 | -42.80276 | 22782 ft | 372 kts | 255° |
| 2026-05-05 00:45 | -22.22021 | -42.84673 | 22240 ft | 370 kts | 256° |
| 2026-05-05 00:46 | -22.23729 | -42.91813 | 21417 ft | 366 kts | 256° |
| 2026-05-05 00:46 | -22.24567 | -42.95341 | 21012 ft | 365 kts | 256° |
| 2026-05-05 00:46 | -22.25822 | -43.00621 | 20404 ft | 360 kts | 256° |
| 2026-05-05 00:46 | -22.27065 | -43.05863 | 19670 ft | 361 kts | 256° |
| 2026-05-05 00:47 | -22.28307 | -43.11068 | 18878 ft | 353 kts | 256° |
| 2026-05-05 00:47 | -22.29506 | -43.16150 | 18107 ft | 348 kts | 256° |
| 2026-05-05 00:47 | -22.30699 | -43.21209 | 17337 ft | 351 kts | 256° |
| 2026-05-05 00:47 | -22.31298 | -43.23751 | 16940 ft | 347 kts | 256° |
| 2026-05-05 00:48 | -22.31891 | -43.26247 | 16616 ft | 340 kts | 256° |
| 2026-05-05 00:48 | -22.32475 | -43.28705 | 16238 ft | 335 kts | 256° |
| 2026-05-05 00:48 | -22.33036 | -43.31080 | 15866 ft | 327 kts | 256° |
| 2026-05-05 00:48 | -22.33597 | -43.33463 | 15484 ft | 319 kts | 256° |
| 2026-05-05 00:49 | -22.34129 | -43.35733 | 15110 ft | 312 kts | 256° |
| 2026-05-05 00:49 | -22.34660 | -43.37997 | 14770 ft | 308 kts | 256° |
| 2026-05-05 00:49 | -22.35180 | -43.40221 | 14441 ft | 303 kts | 256° |
| 2026-05-05 00:49 | -22.35695 | -43.42419 | 14114 ft | 301 kts | 256° |
| 2026-05-05 00:50 | -22.36209 | -43.44611 | 13783 ft | 298 kts | 256° |
| 2026-05-05 00:50 | -22.36896 | -43.46696 | 13448 ft | 293 kts | 239° |
| 2026-05-05 00:50 | -22.38264 | -43.48286 | 13293 ft | 290 kts | 220° |
| 2026-05-05 00:50 | -22.39897 | -43.49566 | 13107 ft | 290 kts | 214° |
| 2026-05-05 00:51 | -22.41679 | -43.50581 | 12723 ft | 289 kts | 206° |
| 2026-05-05 00:51 | -22.43538 | -43.51390 | 12323 ft | 288 kts | 200° |
| 2026-05-05 00:51 | -22.45459 | -43.51972 | 11919 ft | 287 kts | 193° |
| 2026-05-05 00:51 | -22.47353 | -43.52548 | 11525 ft | 286 kts | 200° |
| 2026-05-05 00:52 | -22.49193 | -43.53350 | 11092 ft | 284 kts | 204° |
| 2026-05-05 00:52 | -22.51004 | -43.54198 | 10616 ft | 283 kts | 204° |
| 2026-05-05 00:52 | -22.52827 | -43.55016 | 10146 ft | 282 kts | 203° |
| 2026-05-05 00:52 | -22.54679 | -43.55725 | 9664 ft | 283 kts | 193° |
| 2026-05-05 00:53 | -22.56625 | -43.55698 | 9167 ft | 285 kts | 172° |
| 2026-05-05 00:53 | -22.58527 | -43.55101 | 8729 ft | 285 kts | 161° |
| 2026-05-05 00:53 | -22.60336 | -43.54236 | 8301 ft | 283 kts | 156° |
| 2026-05-05 00:53 | -22.62098 | -43.53284 | 7872 ft | 280 kts | 154° |
| 2026-05-05 00:54 | -22.63759 | -43.52240 | 7417 ft | 275 kts | 146° |
| 2026-05-05 00:54 | -22.65198 | -43.50894 | 6960 ft | 268 kts | 133° |
| 2026-05-05 00:54 | -22.66218 | -43.49234 | 6401 ft | 266 kts | 122° |
| 2026-05-05 00:54 | -22.67187 | -43.47552 | 5897 ft | 259 kts | 122° |
| 2026-05-05 00:55 | -22.68182 | -43.45957 | 5394 ft | 252 kts | 125° |
| 2026-05-05 00:55 | -22.69207 | -43.44443 | 4892 ft | 246 kts | 125° |
| 2026-05-05 00:55 | -22.70195 | -43.42987 | 4413 ft | 239 kts | 125° |
| 2026-05-05 00:55 | -22.71162 | -43.41560 | 3947 ft | 231 kts | 125° |
| 2026-05-05 00:56 | -22.72092 | -43.40176 | 3476 ft | 223 kts | 124° |
| 2026-05-05 00:56 | -22.73008 | -43.38843 | 3047 ft | 216 kts | 125° |
| 2026-05-05 00:56 | -22.73887 | -43.37589 | 2761 ft | 203 kts | 124° |
| 2026-05-05 00:56 | -22.74700 | -43.36386 | 2444 ft | 192 kts | 123° |
| 2026-05-05 00:57 | -22.75439 | -43.35244 | 2148 ft | 178 kts | 122° |
| 2026-05-05 00:57 | -22.76111 | -43.34184 | 1856 ft | 165 kts | 122° |
| 2026-05-05 00:57 | -22.76763 | -43.33179 | 1576 ft | 160 kts | 123° |
| 2026-05-05 00:57 | -22.77386 | -43.32236 | 1429 ft | 150 kts | 122° |
| 2026-05-05 00:58 | -22.77977 | -43.31316 | 1258 ft | 148 kts | 123° |
| 2026-05-05 00:58 | -22.78576 | -43.30414 | 1008 ft | 147 kts | 123° |
| 2026-05-05 00:58 | -22.79166 | -43.29525 | 784 ft | 144 kts | 124° |
| 2026-05-05 00:58 | -22.79753 | -43.28647 | 558 ft | 143 kts | 123° |
| 2026-05-05 00:59 | -22.80331 | -43.27771 | 367 ft | 142 kts | 123° |
| 2026-05-05 00:59 | -22.80904 | -43.26901 | 204 ft | 142 kts | 123° |
| 2026-05-05 00:59 | -22.81476 | -43.26037 | 56 ft | 139 kts | 123° |
| 2026-05-05 00:59 | -22.81985 | -43.25253 | 42 ft | 108 kts | 126° |
| 2026-05-05 01:00 | -22.82284 | -43.24807 | 41 ft | 40 kts | 124° |
| 2026-05-05 01:00 | -22.82343 | -43.24670 | 41 ft | 15 kts | 102° |
| 2026-05-05 01:00 | -22.82360 | -43.24563 | 41 ft | 14 kts | 98° |
| 2026-05-05 01:00 | -22.82367 | -43.24502 | 41 ft | 6 kts | 92° |
| 2026-05-05 01:01 | -22.82360 | -43.24461 | 41 ft | 6 kts | 68° |
| 2026-05-05 01:01 | -22.82340 | -43.24427 | 41 ft | 5 kts | 47° |
| 2026-05-05 01:01 | -22.82311 | -43.24403 | 41 ft | 5 kts | 34° |
| 2026-05-05 01:01 | -22.82282 | -43.24381 | 41 ft | 5 kts | 34° |
| 2026-05-05 01:02 | -22.82239 | -43.24349 | 41 ft | 14 kts | 34° |
| 2026-05-05 01:02 | -22.82177 | -43.24301 | 41 ft | 9 kts | 33° |
| 2026-05-05 01:02 | -22.82125 | -43.24317 | 41 ft | 9 kts | 311° |
| 2026-05-05 01:02 | -22.82090 | -43.24368 | 41 ft | 8 kts | 304° |
| 2026-05-05 01:03 | -22.82058 | -43.24418 | 41 ft | 8 kts | 305° |
| 2026-05-05 01:03 | -22.82027 | -43.24464 | 41 ft | 7 kts | 305° |
| 2026-05-05 01:03 | -22.81998 | -43.24508 | 41 ft | 7 kts | 306° |
| 2026-05-05 01:03 | -22.81970 | -43.24551 | 41 ft | 7 kts | 306° |
| 2026-05-05 01:04 | -22.81943 | -43.24592 | 41 ft | 7 kts | 306° |
| 2026-05-05 01:04 | -22.81868 | -43.24599 | 41 ft | 6 kts | 35° |
| 2026-05-05 01:04 | -22.81833 | -43.24572 | 41 ft | 6 kts | 36° |
| 2026-05-05 01:05 | -22.81800 | -43.24546 | 41 ft | 6 kts | 36° |
| 2026-05-05 01:05 | -22.81767 | -43.24521 | 41 ft | 6 kts | 35° |
| 2026-05-05 01:05 | -22.81735 | -43.24496 | 41 ft | 5 kts | 35° |
| 2026-05-05 01:05 | -22.81705 | -43.24472 | 41 ft | 5 kts | 46° |
| 2026-05-05 01:06 | -22.81689 | -43.24438 | 41 ft | 5 kts | 77° |
| 2026-05-05 01:06 | -22.81692 | -43.24401 | 41 ft | 5 kts | 114° |
| 2026-05-05 01:06 | -22.81712 | -43.24372 | 41 ft | 5 kts | 128° |
| 2026-05-05 01:06 | -22.81723 | -43.24356 | 41 ft | 3 kts | 128° |
| 2026-05-05 01:07 | -22.81727 | -43.24350 | 41 ft | 1 kts | 127° |
| 2026-05-05 01:07 | -22.81730 | -43.24346 | 41 ft | 1 kts | 127° |
| 2026-05-05 01:07 | -22.81731 | -43.24345 | 41 ft | 0 kts | 127° |